sensor_id;sensor_type;location;lat;lon;timestamp;pressure;altitude;pressure_sealevel;temperature
15144;BMP180;7672;50.834;6.286;2022-12-20T00:01:27;99637.13;;;16.86
15144;BMP180;7672;50.834;6.286;2022-12-20T00:03:58;99633.78;;;16.84
15144;BMP180;7672;50.834;6.286;2022-12-20T00:06:25;99638.09;;;16.81
15144;BMP180;7672;50.834;6.286;2022-12-20T00:08:59;99657.69;;;16.80
15144;BMP180;7672;50.834;6.286;2022-12-20T00:11:28;99651.03;;;16.73
15144;BMP180;7672;50.834;6.286;2022-12-20T00:13:56;99651.06;;;16.72
15144;BMP180;7672;50.834;6.286;2022-12-20T00:16:26;99652.75;;;16.71
15144;BMP180;7672;50.834;6.286;2022-12-20T00:18:56;99636.69;;;16.68
15144;BMP180;7672;50.834;6.286;2022-12-20T00:21:25;99641.78;;;16.68
15144;BMP180;7672;50.834;6.286;2022-12-20T00:23:53;99643.53;;;16.66
15144;BMP180;7672;50.834;6.286;2022-12-20T00:26:23;99637.59;;;16.66
15144;BMP180;7672;50.834;6.286;2022-12-20T00:28:51;99657.19;;;16.64
15144;BMP180;7672;50.834;6.286;2022-12-20T00:31:20;99659.75;;;16.64
15144;BMP180;7672;50.834;6.286;2022-12-20T00:33:50;99651.28;;;16.62
15144;BMP180;7672;50.834;6.286;2022-12-20T00:36:18;99664.91;;;16.61
15144;BMP180;7672;50.834;6.286;2022-12-20T00:38:51;99651.34;;;16.59
15144;BMP180;7672;50.834;6.286;2022-12-20T00:41:22;99650.50;;;16.58
15144;BMP180;7672;50.834;6.286;2022-12-20T00:43:50;99648.84;;;16.56
15144;BMP180;7672;50.834;6.286;2022-12-20T00:46:18;99648.84;;;16.56
15144;BMP180;7672;50.834;6.286;2022-12-20T00:48:46;99648.03;;;16.54
15144;BMP180;7672;50.834;6.286;2022-12-20T00:51:17;99644.63;;;16.55
15144;BMP180;7672;50.834;6.286;2022-12-20T00:53:45;99653.13;;;16.54
15144;BMP180;7672;50.834;6.286;2022-12-20T00:56:13;99638.72;;;16.53
15144;BMP180;7672;50.834;6.286;2022-12-20T00:58:42;99638.72;;;16.51
15144;BMP180;7672;50.834;6.286;2022-12-20T01:01:24;99637.16;;;16.46
15144;BMP180;7672;50.834;6.286;2022-12-20T01:03:52;99638.09;;;16.42
15144;BMP180;7672;50.834;6.286;2022-12-20T01:06:21;99636.38;;;16.42
15144;BMP180;7672;50.834;6.286;2022-12-20T01:08:48;99633.88;;;16.39
15144;BMP180;7672;50.834;6.286;2022-12-20T01:11:19;99629.69;;;16.37
15144;BMP180;7672;50.834;6.286;2022-12-20T01:13:50;99625.44;;;16.36
15144;BMP180;7672;50.834;6.286;2022-12-20T01:16:25;99627.22;;;16.34
15144;BMP180;7672;50.834;6.286;2022-12-20T01:18:53;99623.88;;;16.30
15144;BMP180;7672;50.834;6.286;2022-12-20T01:21:23;99613.72;;;16.29
15144;BMP180;7672;50.834;6.286;2022-12-20T01:23:51;99629.88;;;16.28
15144;BMP180;7672;50.834;6.286;2022-12-20T01:26:21;99626.50;;;16.26
15144;BMP180;7672;50.834;6.286;2022-12-20T01:28:53;99627.38;;;16.23
15144;BMP180;7672;50.834;6.286;2022-12-20T01:31:21;99624.84;;;16.22
15144;BMP180;7672;50.834;6.286;2022-12-20T01:33:49;99618.09;;;16.19
15144;BMP180;7672;50.834;6.286;2022-12-20T01:36:21;99621.56;;;16.17
15144;BMP180;7672;50.834;6.286;2022-12-20T01:38:48;99620.75;;;16.15
15144;BMP180;7672;50.834;6.286;2022-12-20T01:41:20;99619.06;;;16.14
15144;BMP180;7672;50.834;6.286;2022-12-20T01:43:53;99610.59;;;16.12
15144;BMP180;7672;50.834;6.286;2022-12-20T01:46:24;99614.03;;;16.11
15144;BMP180;7672;50.834;6.286;2022-12-20T01:51:39;99607.38;;;16.04
15144;BMP180;7672;50.834;6.286;2022-12-20T01:54:18;99591.25;;;16.04
15144;BMP180;7672;50.834;6.286;2022-12-20T01:56:57;99589.59;;;16.01
15144;BMP180;7672;50.834;6.286;2022-12-20T01:59:26;99584.50;;;16.01
15144;BMP180;7672;50.834;6.286;2022-12-20T02:02:01;99585.31;;;16.02
15144;BMP180;7672;50.834;6.286;2022-12-20T02:04:30;99583.63;;;16.01
15144;BMP180;7672;50.834;6.286;2022-12-20T02:06:59;99573.44;;;16.01
15144;BMP180;7672;50.834;6.286;2022-12-20T02:09:26;99590.41;;;16.02
15144;BMP180;7672;50.834;6.286;2022-12-20T02:12:14;99586.22;;;15.99
15144;BMP180;7672;50.834;6.286;2022-12-20T02:18:16;99577.81;;;15.94
15144;BMP180;7672;50.834;6.286;2022-12-20T02:21:07;99578.69;;;15.93
15144;BMP180;7672;50.834;6.286;2022-12-20T02:29:39;99571.94;;;15.91
15144;BMP180;7672;50.834;6.286;2022-12-20T02:32:19;99570.28;;;15.90
15144;BMP180;7672;50.834;6.286;2022-12-20T02:34:49;99576.16;;;15.92
15144;BMP180;7672;50.834;6.286;2022-12-20T02:37:17;99579.56;;;15.91
15144;BMP180;7672;50.834;6.286;2022-12-20T02:39:45;99569.38;;;15.92
15144;BMP180;7672;50.834;6.286;2022-12-20T02:42:17;99580.34;;;15.96
15144;BMP180;7672;50.834;6.286;2022-12-20T02:45:08;99565.94;;;15.93
15144;BMP180;7672;50.834;6.286;2022-12-20T02:47:56;99560.00;;;15.93
15144;BMP180;7672;50.834;6.286;2022-12-20T02:50:31;99554.94;;;15.91
15144;BMP180;7672;50.834;6.286;2022-12-20T02:53:00;99544.78;;;15.90
15144;BMP180;7672;50.834;6.286;2022-12-20T02:55:50;99549.06;;;15.88
15144;BMP180;7672;50.834;6.286;2022-12-20T02:58:51;99524.56;;;15.82
15144;BMP180;7672;50.834;6.286;2022-12-20T03:01:40;99525.56;;;15.74
15144;BMP180;7672;50.834;6.286;2022-12-20T03:04:11;99535.03;;;15.67
15144;BMP180;7672;50.834;6.286;2022-12-20T03:06:54;99535.16;;;15.60
15144;BMP180;7672;50.834;6.286;2022-12-20T03:09:21;99541.19;;;15.56
15144;BMP180;7672;50.834;6.286;2022-12-20T03:11:48;99535.34;;;15.51
15144;BMP180;7672;50.834;6.286;2022-12-20T03:14:15;99532.84;;;15.48
15144;BMP180;7672;50.834;6.286;2022-12-20T03:16:42;99543.94;;;15.46
15144;BMP180;7672;50.834;6.286;2022-12-20T03:19:09;99551.63;;;15.44
15144;BMP180;7672;50.834;6.286;2022-12-20T03:21:35;99547.41;;;15.42
15144;BMP180;7672;50.834;6.286;2022-12-20T03:24:02;99555.06;;;15.39
15144;BMP180;7672;50.834;6.286;2022-12-20T03:26:29;99554.31;;;15.35
15144;BMP180;7672;50.834;6.286;2022-12-20T03:28:56;99555.16;;;15.36
15144;BMP180;7672;50.834;6.286;2022-12-20T03:31:23;99548.41;;;15.33
15144;BMP180;7672;50.834;6.286;2022-12-20T03:33:49;99556.03;;;15.33
15144;BMP180;7672;50.834;6.286;2022-12-20T03:36:16;99561.13;;;15.33
15144;BMP180;7672;50.834;6.286;2022-12-20T03:38:50;99561.13;;;15.33
15144;BMP180;7672;50.834;6.286;2022-12-20T03:41:20;99547.56;;;15.33
15144;BMP180;7672;50.834;6.286;2022-12-20T03:43:48;99555.22;;;15.33
15144;BMP180;7672;50.834;6.286;2022-12-20T03:46:15;99571.31;;;15.33
15144;BMP180;7672;50.834;6.286;2022-12-20T03:48:42;99572.16;;;15.34
15144;BMP180;7672;50.834;6.286;2022-12-20T03:51:10;99569.59;;;15.35
15144;BMP180;7672;50.834;6.286;2022-12-20T03:53:36;99572.97;;;15.36
15144;BMP180;7672;50.834;6.286;2022-12-20T03:56:03;99577.22;;;15.34
15144;BMP180;7672;50.834;6.286;2022-12-20T03:58:30;99582.31;;;15.34
15144;BMP180;7672;50.834;6.286;2022-12-20T04:00:57;99577.22;;;15.34
15144;BMP180;7672;50.834;6.286;2022-12-20T04:03:24;99549.25;;;15.32
15144;BMP180;7672;50.834;6.286;2022-12-20T04:05:51;99545.03;;;15.33
15144;BMP180;7672;50.834;6.286;2022-12-20T04:08:18;99542.47;;;15.31
15144;BMP180;7672;50.834;6.286;2022-12-20T04:10:45;99532.31;;;15.30
15144;BMP180;7672;50.834;6.286;2022-12-20T04:13:30;99540.00;;;15.28
15144;BMP180;7672;50.834;6.286;2022-12-20T04:15:57;99551.06;;;15.26
15144;BMP180;7672;50.834;6.286;2022-12-20T04:18:26;99551.94;;;15.25
15144;BMP180;7672;50.834;6.286;2022-12-20T04:20:53;99526.47;;;15.25
15144;BMP180;7672;50.834;6.286;2022-12-20T04:23:20;99519.72;;;15.24
15144;BMP180;7672;50.834;6.286;2022-12-20T04:25:47;99519.72;;;15.24
15144;BMP180;7672;50.834;6.286;2022-12-20T04:28:14;99517.97;;;15.26
15144;BMP180;7672;50.834;6.286;2022-12-20T04:30:41;99518.00;;;15.24
15144;BMP180;7672;50.834;6.286;2022-12-20T04:33:07;99519.69;;;15.25
15144;BMP180;7672;50.834;6.286;2022-12-20T04:35:36;99514.56;;;15.27
15144;BMP180;7672;50.834;6.286;2022-12-20T04:38:03;99515.38;;;15.29
15144;BMP180;7672;50.834;6.286;2022-12-20T04:40:30;99508.59;;;15.29
15144;BMP180;7672;50.834;6.286;2022-12-20T04:42:57;99512.81;;;15.30
15144;BMP180;7672;50.834;6.286;2022-12-20T04:45:23;99505.09;;;15.33
15144;BMP180;7672;50.834;6.286;2022-12-20T04:47:50;99505.94;;;15.34
15144;BMP180;7672;50.834;6.286;2022-12-20T04:50:17;99500.84;;;15.35
15144;BMP180;7672;50.834;6.286;2022-12-20T04:52:45;99501.63;;;15.37
15144;BMP180;7672;50.834;6.286;2022-12-20T04:55:30;99503.28;;;15.40
15144;BMP180;7672;50.834;6.286;2022-12-20T04:57:57;99503.28;;;15.40
15144;BMP180;7672;50.834;6.286;2022-12-20T05:00:33;99505.75;;;15.43
15144;BMP180;7672;50.834;6.286;2022-12-20T05:03:00;99499.81;;;15.44
15144;BMP180;7672;50.834;6.286;2022-12-20T05:05:27;99495.56;;;15.44
15144;BMP180;7672;50.834;6.286;2022-12-20T05:07:55;99492.13;;;15.45
15144;BMP180;7672;50.834;6.286;2022-12-20T05:10:22;99498.06;;;15.47
15144;BMP180;7672;50.834;6.286;2022-12-20T05:12:49;99499.75;;;15.48
15144;BMP180;7672;50.834;6.286;2022-12-20T05:15:16;99487.00;;;15.48
15144;BMP180;7672;50.834;6.286;2022-12-20T05:17:43;99486.97;;;15.49
15144;BMP180;7672;50.834;6.286;2022-12-20T05:20:10;99481.03;;;15.50
15144;BMP180;7672;50.834;6.286;2022-12-20T05:22:37;99481.84;;;15.51
15144;BMP180;7672;50.834;6.286;2022-12-20T05:25:23;99478.44;;;15.52
15144;BMP180;7672;50.834;6.286;2022-12-20T05:28:09;99470.75;;;15.53
15144;BMP180;7672;50.834;6.286;2022-12-20T05:30:35;99483.44;;;15.56
15144;BMP180;7672;50.834;6.286;2022-12-20T05:33:02;99474.09;;;15.57
15144;BMP180;7672;50.834;6.286;2022-12-20T05:35:29;99480.84;;;15.59
15144;BMP180;7672;50.834;6.286;2022-12-20T05:37:56;99471.44;;;15.61
15144;BMP180;7672;50.834;6.286;2022-12-20T05:40:23;99459.59;;;15.60
15144;BMP180;7672;50.834;6.286;2022-12-20T05:42:49;99457.00;;;15.62
15144;BMP180;7672;50.834;6.286;2022-12-20T05:45:16;99459.53;;;15.63
15144;BMP180;7672;50.834;6.286;2022-12-20T05:47:43;99450.16;;;15.64
15144;BMP180;7672;50.834;6.286;2022-12-20T05:50:10;99453.56;;;15.64
15144;BMP180;7672;50.834;6.286;2022-12-20T05:52:44;99462.03;;;15.65
15144;BMP180;7672;50.834;6.286;2022-12-20T05:55:11;99460.28;;;15.68
15144;BMP180;7672;50.834;6.286;2022-12-20T05:57:39;99456.88;;;15.69
15144;BMP180;7672;50.834;6.286;2022-12-20T06:00:07;99454.28;;;15.71
15144;BMP180;7672;50.834;6.286;2022-12-20T06:02:34;99449.97;;;15.73
15144;BMP180;7672;50.834;6.286;2022-12-20T06:05:01;99450.84;;;15.73
15144;BMP180;7672;50.834;6.286;2022-12-20T06:07:28;99455.06;;;15.74
15144;BMP180;7672;50.834;6.286;2022-12-20T06:09:55;99461.81;;;15.75
15144;BMP180;7672;50.834;6.286;2022-12-20T06:12:22;99460.13;;;15.76
15144;BMP180;7672;50.834;6.286;2022-12-20T06:14:49;99455.84;;;15.76
15144;BMP180;7672;50.834;6.286;2022-12-20T06:17:16;99449.06;;;15.77
15144;BMP180;7672;50.834;6.286;2022-12-20T06:19:44;99464.34;;;15.77
15144;BMP180;7672;50.834;6.286;2022-12-20T06:22:11;99441.44;;;15.77
15144;BMP180;7672;50.834;6.286;2022-12-20T06:24:38;99446.50;;;15.78
15144;BMP180;7672;50.834;6.286;2022-12-20T06:27:13;99433.78;;;15.77
15144;BMP180;7672;50.834;6.286;2022-12-20T06:29:40;99441.38;;;15.78
15144;BMP180;7672;50.834;6.286;2022-12-20T06:32:07;99450.69;;;15.79
15144;BMP180;7672;50.834;6.286;2022-12-20T06:34:34;99439.63;;;15.80
15144;BMP180;7672;50.834;6.286;2022-12-20T06:37:00;99441.31;;;15.81
15144;BMP180;7672;50.834;6.286;2022-12-20T06:39:27;99448.88;;;15.84
15144;BMP180;7672;50.834;6.286;2022-12-20T06:41:54;99444.66;;;15.85
15144;BMP180;7672;50.834;6.286;2022-12-20T06:44:21;99435.28;;;15.85
15144;BMP180;7672;50.834;6.286;2022-12-20T06:46:47;99431.78;;;15.89
15144;BMP180;7672;50.834;6.286;2022-12-20T06:49:14;99419.03;;;15.89
15144;BMP180;7672;50.834;6.286;2022-12-20T06:51:41;99416.47;;;15.91
15144;BMP180;7672;50.834;6.286;2022-12-20T06:54:08;99415.63;;;15.90
15144;BMP180;7672;50.834;6.286;2022-12-20T06:56:35;99422.41;;;15.91
15144;BMP180;7672;50.834;6.286;2022-12-20T06:59:07;99419.88;;;15.91
15144;BMP180;7672;50.834;6.286;2022-12-20T07:01:34;99407.13;;;15.91
15144;BMP180;7672;50.834;6.286;2022-12-20T07:04:01;99399.47;;;15.91
15144;BMP180;7672;50.834;6.286;2022-12-20T07:06:28;99403.72;;;15.92
15144;BMP180;7672;50.834;6.286;2022-12-20T07:08:55;99396.06;;;15.92
15144;BMP180;7672;50.834;6.286;2022-12-20T07:11:21;99390.06;;;15.93
15144;BMP180;7672;50.834;6.286;2022-12-20T07:13:48;99390.06;;;15.95
15144;BMP180;7672;50.834;6.286;2022-12-20T07:16:15;99400.25;;;15.95
15144;BMP180;7672;50.834;6.286;2022-12-20T07:18:42;99414.66;;;15.96
15144;BMP180;7672;50.834;6.286;2022-12-20T07:21:09;99410.47;;;15.93
15144;BMP180;7672;50.834;6.286;2022-12-20T07:23:36;99411.34;;;15.92
15144;BMP180;7672;50.834;6.286;2022-12-20T07:26:03;99404.56;;;15.91
15144;BMP180;7672;50.834;6.286;2022-12-20T07:28:30;99401.13;;;15.94
15144;BMP180;7672;50.834;6.286;2022-12-20T07:31:01;99391.75;;;15.94
15144;BMP180;7672;50.834;6.286;2022-12-20T07:33:29;99402.78;;;15.96
15144;BMP180;7672;50.834;6.286;2022-12-20T07:36:04;99395.91;;;15.98
15144;BMP180;7672;50.834;6.286;2022-12-20T07:38:32;99411.19;;;15.98
15144;BMP180;7672;50.834;6.286;2022-12-20T07:40:59;99422.22;;;16.00
15144;BMP180;7672;50.834;6.286;2022-12-20T07:43:26;99413.69;;;16.01
15144;BMP180;7672;50.834;6.286;2022-12-20T07:45:55;99418.75;;;16.03
15144;BMP180;7672;50.834;6.286;2022-12-20T07:48:23;99411.06;;;16.04
15144;BMP180;7672;50.834;6.286;2022-12-20T07:50:58;99411.91;;;16.06
15144;BMP180;7672;50.834;6.286;2022-12-20T07:53:30;99400.78;;;16.07
15144;BMP180;7672;50.834;6.286;2022-12-20T07:56:00;99396.50;;;16.09
15144;BMP180;7672;50.834;6.286;2022-12-20T07:58:29;99398.16;;;16.11
15144;BMP180;7672;50.834;6.286;2022-12-20T08:00:57;99399.88;;;16.11
15144;BMP180;7672;50.834;6.286;2022-12-20T08:03:30;99398.97;;;16.13
15144;BMP180;7672;50.834;6.286;2022-12-20T08:06:01;99393.88;;;16.13
15144;BMP180;7672;50.834;6.286;2022-12-20T08:08:37;99391.28;;;16.15
15144;BMP180;7672;50.834;6.286;2022-12-20T08:11:07;99384.47;;;16.15
15144;BMP180;7672;50.834;6.286;2022-12-20T08:13:36;99400.59;;;16.17
15144;BMP180;7672;50.834;6.286;2022-12-20T08:16:11;99399.72;;;16.17
15144;BMP180;7672;50.834;6.286;2022-12-20T08:18:38;99399.69;;;16.18
15144;BMP180;7672;50.834;6.286;2022-12-20T08:21:05;99409.84;;;16.21
15144;BMP180;7672;50.834;6.286;2022-12-20T08:23:32;99397.94;;;16.20
15144;BMP180;7672;50.834;6.286;2022-12-20T08:26:01;99405.56;;;16.22
15144;BMP180;7672;50.834;6.286;2022-12-20T08:28:29;99407.19;;;16.24
15144;BMP180;7672;50.834;6.286;2022-12-20T08:31:07;99406.38;;;16.24
15144;BMP180;7672;50.834;6.286;2022-12-20T08:33:36;99401.22;;;16.25
15144;BMP180;7672;50.834;6.286;2022-12-20T08:36:08;99402.97;;;16.25
15144;BMP180;7672;50.834;6.286;2022-12-20T08:38:36;99392.75;;;16.26
15144;BMP180;7672;50.834;6.286;2022-12-20T08:41:14;99398.69;;;16.27
15144;BMP180;7672;50.834;6.286;2022-12-20T08:43:41;99396.13;;;16.27
15144;BMP180;7672;50.834;6.286;2022-12-20T08:46:10;99397.81;;;16.28
15144;BMP180;7672;50.834;6.286;2022-12-20T08:48:40;99396.13;;;16.27
15144;BMP180;7672;50.834;6.286;2022-12-20T08:51:09;99402.03;;;16.29
15144;BMP180;7672;50.834;6.286;2022-12-20T08:53:37;99404.59;;;16.29
15144;BMP180;7672;50.834;6.286;2022-12-20T08:56:17;99400.31;;;16.29
15144;BMP180;7672;50.834;6.286;2022-12-20T08:58:45;99404.56;;;16.30
15144;BMP180;7672;50.834;6.286;2022-12-20T09:01:17;99415.56;;;16.31
15144;BMP180;7672;50.834;6.286;2022-12-20T09:03:46;99407.06;;;16.32
15144;BMP180;7672;50.834;6.286;2022-12-20T09:06:19;99410.44;;;16.34
15144;BMP180;7672;50.834;6.286;2022-12-20T09:08:47;99398.50;;;16.34
15144;BMP180;7672;50.834;6.286;2022-12-20T09:11:23;99392.53;;;16.35
15144;BMP180;7672;50.834;6.286;2022-12-20T09:13:54;99399.28;;;16.38
15144;BMP180;7672;50.834;6.286;2022-12-20T09:16:25;99390.75;;;16.39
15144;BMP180;7672;50.834;6.286;2022-12-20T09:18:56;99383.97;;;16.38
15144;BMP180;7672;50.834;6.286;2022-12-20T09:21:31;99378.00;;;16.39
15144;BMP180;7672;50.834;6.286;2022-12-20T09:23:58;99366.06;;;16.39
15144;BMP180;7672;50.834;6.286;2022-12-20T09:26:25;99385.66;;;16.39
15144;BMP180;7672;50.834;6.286;2022-12-20T09:28:51;99372.91;;;16.39
15144;BMP180;7672;50.834;6.286;2022-12-20T09:31:22;99377.97;;;16.40
15144;BMP180;7672;50.834;6.286;2022-12-20T09:33:53;99377.00;;;16.44
15144;BMP180;7672;50.834;6.286;2022-12-20T09:36:22;99378.66;;;16.47
15144;BMP180;7672;50.834;6.286;2022-12-20T09:38:50;99380.28;;;16.49
15144;BMP180;7672;50.834;6.286;2022-12-20T09:43:52;99380.16;;;16.55
15144;BMP180;7672;50.834;6.286;2022-12-20T09:46:19;99369.81;;;16.60
15144;BMP180;7672;50.834;6.286;2022-12-20T09:48:46;99378.28;;;16.62
15144;BMP180;7672;50.834;6.286;2022-12-20T09:51:28;99362.72;;;16.71
15144;BMP180;7672;50.834;6.286;2022-12-20T09:54:20;99355.75;;;16.77
15144;BMP180;7672;50.834;6.286;2022-12-20T09:57:04;99362.25;;;16.88
15144;BMP180;7672;50.834;6.286;2022-12-20T09:59:37;99364.47;;;17.00
15144;BMP180;7672;50.834;6.286;2022-12-20T10:02:19;99352.31;;;17.10
15144;BMP180;7672;50.834;6.286;2022-12-20T10:05:29;99370.84;;;17.16
15144;BMP180;7672;50.834;6.286;2022-12-20T10:14:21;99354.59;;;17.19
15144;BMP180;7672;50.834;6.286;2022-12-20T10:23:20;99359.50;;;17.28
15144;BMP180;7672;50.834;6.286;2022-12-20T10:25:59;99353.97;;;17.41
15144;BMP180;7672;50.834;6.286;2022-12-20T10:28:32;99359.31;;;17.62
15144;BMP180;7672;50.834;6.286;2022-12-20T10:31:06;99342.59;;;17.80
15144;BMP180;7672;50.834;6.286;2022-12-20T10:33:33;99337.84;;;17.95
15144;BMP180;7672;50.834;6.286;2022-12-20T10:36:30;99338.19;;;18.10
15144;BMP180;7672;50.834;6.286;2022-12-20T10:39:03;99342.09;;;18.23
15144;BMP180;7672;50.834;6.286;2022-12-20T10:44:27;99329.69;;;18.37
15144;BMP180;7672;50.834;6.286;2022-12-20T10:46:58;99321.09;;;18.40
15144;BMP180;7672;50.834;6.286;2022-12-20T10:49:34;99326.03;;;18.44
15144;BMP180;7672;50.834;6.286;2022-12-20T10:54:38;99318.28;;;18.46
15144;BMP180;7672;50.834;6.286;2022-12-20T10:57:26;99313.34;;;18.41
15144;BMP180;7672;50.834;6.286;2022-12-20T11:00:04;99338.13;;;18.39
15144;BMP180;7672;50.834;6.286;2022-12-20T11:02:38;99315.31;;;18.33
15144;BMP180;7672;50.834;6.286;2022-12-20T11:07:50;99312.22;;;18.24
15144;BMP180;7672;50.834;6.286;2022-12-20T11:10:37;99320.22;;;18.13
15144;BMP180;7672;50.834;6.286;2022-12-20T11:13:04;99322.84;;;18.10
15144;BMP180;7672;50.834;6.286;2022-12-20T11:15:35;99313.53;;;18.09
15144;BMP180;7672;50.834;6.286;2022-12-20T11:18:51;99312.91;;;18.01
15144;BMP180;7672;50.834;6.286;2022-12-20T11:21:43;99314.78;;;17.96
15144;BMP180;7672;50.834;6.286;2022-12-20T11:24:33;99299.59;;;17.92
15144;BMP180;7672;50.834;6.286;2022-12-20T11:27:26;99314.19;;;17.89
15144;BMP180;7672;50.834;6.286;2022-12-20T11:30:31;99308.38;;;17.84
15144;BMP180;7672;50.834;6.286;2022-12-20T11:36:02;99324.69;;;17.80
15144;BMP180;7672;50.834;6.286;2022-12-20T11:38:42;99312.06;;;17.75
15144;BMP180;7672;50.834;6.286;2022-12-20T11:41:31;99314.69;;;17.72
15144;BMP180;7672;50.834;6.286;2022-12-20T11:53:44;99299.19;;;17.51
15144;BMP180;7672;50.834;6.286;2022-12-20T11:56:33;99299.38;;;17.45
15144;BMP180;7672;50.834;6.286;2022-12-20T11:59:50;99301.25;;;17.38
15144;BMP180;7672;50.834;6.286;2022-12-20T12:02:27;99307.31;;;17.36
15144;BMP180;7672;50.834;6.286;2022-12-20T12:05:04;99290.31;;;17.35
15144;BMP180;7672;50.834;6.286;2022-12-20T12:07:35;99283.53;;;17.34
15144;BMP180;7672;50.834;6.286;2022-12-20T12:10:23;99299.78;;;17.32
15144;BMP180;7672;50.834;6.286;2022-12-20T12:15:47;99292.16;;;17.30
15144;BMP180;7672;50.834;6.286;2022-12-20T12:18:28;99282.75;;;17.31
15144;BMP180;7672;50.834;6.286;2022-12-20T12:24:10;99281.84;;;17.33
15144;BMP180;7672;50.834;6.286;2022-12-20T12:26:41;99280.16;;;17.34
15144;BMP180;7672;50.834;6.286;2022-12-20T12:40:03;99267.91;;;17.43
15144;BMP180;7672;50.834;6.286;2022-12-20T12:43:01;99264.44;;;17.45
15144;BMP180;7672;50.834;6.286;2022-12-20T12:45:43;99257.53;;;17.49
15144;BMP180;7672;50.834;6.286;2022-12-20T12:50:57;99258.28;;;17.51
15144;BMP180;7672;50.834;6.286;2022-12-20T12:53:43;99254.88;;;17.52
15144;BMP180;7672;50.834;6.286;2022-12-20T13:10:04;99241.81;;;17.61
15144;BMP180;7672;50.834;6.286;2022-12-20T13:17:59;99259.41;;;17.70
15144;BMP180;7672;50.834;6.286;2022-12-20T13:20:32;99246.63;;;17.70
15144;BMP180;7672;50.834;6.286;2022-12-20T13:25:51;99249.09;;;17.73
15144;BMP180;7672;50.834;6.286;2022-12-20T13:33:45;99242.16;;;17.76
15144;BMP180;7672;50.834;6.286;2022-12-20T13:41:36;99234.53;;;17.75
15144;BMP180;7672;50.834;6.286;2022-12-20T13:49:47;99238.22;;;17.66
15144;BMP180;7672;50.834;6.286;2022-12-20T13:52:21;99240.78;;;17.66
15144;BMP180;7672;50.834;6.286;2022-12-20T13:54:54;99233.09;;;17.66
15144;BMP180;7672;50.834;6.286;2022-12-20T13:57:44;99229.88;;;17.61
15144;BMP180;7672;50.834;6.286;2022-12-20T14:00:24;99229.91;;;17.60
15144;BMP180;7672;50.834;6.286;2022-12-20T14:02:52;99222.34;;;17.57
15144;BMP180;7672;50.834;6.286;2022-12-20T14:05:31;99227.47;;;17.57
15144;BMP180;7672;50.834;6.286;2022-12-20T14:08:04;99222.34;;;17.57
15144;BMP180;7672;50.834;6.286;2022-12-20T14:10:34;99218.91;;;17.58
15144;BMP180;7672;50.834;6.286;2022-12-20T14:13:02;99226.53;;;17.59
15144;BMP180;7672;50.834;6.286;2022-12-20T14:15:32;99229.09;;;17.59
15144;BMP180;7672;50.834;6.286;2022-12-20T14:18:21;99233.44;;;17.56
15144;BMP180;7672;50.834;6.286;2022-12-20T14:20:54;99231.88;;;17.52
15144;BMP180;7672;50.834;6.286;2022-12-20T14:23:25;99238.78;;;17.48
15144;BMP180;7672;50.834;6.286;2022-12-20T14:26:01;99234.59;;;17.47
15144;BMP180;7672;50.834;6.286;2022-12-20T14:28:44;99238.13;;;17.42
15144;BMP180;7672;50.834;6.286;2022-12-20T14:36:46;99223.34;;;17.24
15144;BMP180;7672;50.834;6.286;2022-12-20T14:39:32;99225.28;;;17.16
15144;BMP180;7672;50.834;6.286;2022-12-20T14:42:12;99231.44;;;17.11
15144;BMP180;7672;50.834;6.286;2022-12-20T14:44:39;99221.38;;;17.05
15144;BMP180;7672;50.834;6.286;2022-12-20T14:47:21;99221.56;;;16.99
15144;BMP180;7672;50.834;6.286;2022-12-20T14:50:27;99221.75;;;16.91
15144;BMP180;7672;50.834;6.286;2022-12-20T14:52:55;99214.28;;;16.85
15144;BMP180;7672;50.834;6.286;2022-12-20T14:55:31;99207.59;;;16.81
15144;BMP180;7672;50.834;6.286;2022-12-20T14:57:59;99201.81;;;16.75
15144;BMP180;7672;50.834;6.286;2022-12-20T15:00:30;99205.28;;;16.72
15144;BMP180;7672;50.834;6.286;2022-12-20T15:03:16;99207.19;;;16.66
15144;BMP180;7672;50.834;6.286;2022-12-20T15:05:48;99207.34;;;16.60
15144;BMP180;7672;50.834;6.286;2022-12-20T15:08:27;99204.94;;;16.56
15144;BMP180;7672;50.834;6.286;2022-12-20T15:13:45;99200.13;;;16.45
15144;BMP180;7672;50.834;6.286;2022-12-20T15:16:22;99194.38;;;16.37
15144;BMP180;7672;50.834;6.286;2022-12-20T15:18:59;99201.31;;;16.34
15144;BMP180;7672;50.834;6.286;2022-12-20T15:23:59;99187.09;;;16.24
15144;BMP180;7672;50.834;6.286;2022-12-20T15:26:29;99197.34;;;16.21
15144;BMP180;7672;50.834;6.286;2022-12-20T15:28:56;99194.88;;;16.18
15144;BMP180;7672;50.834;6.286;2022-12-20T15:31:26;99176.31;;;16.13
15144;BMP180;7672;50.834;6.286;2022-12-20T15:34:02;99181.47;;;16.11
15144;BMP180;7672;50.834;6.286;2022-12-20T15:36:29;99173.91;;;16.08
15144;BMP180;7672;50.834;6.286;2022-12-20T15:38:57;99183.38;;;16.04
15144;BMP180;7672;50.834;6.286;2022-12-20T15:41:45;99186.91;;;16.00
15144;BMP180;7672;50.834;6.286;2022-12-20T15:44:18;99181.84;;;15.97
15144;BMP180;7672;50.834;6.286;2022-12-20T15:46:45;99192.91;;;15.96
15144;BMP180;7672;50.834;6.286;2022-12-20T15:49:18;99187.09;;;15.92
15144;BMP180;7672;50.834;6.286;2022-12-20T15:51:47;99192.19;;;15.92
15144;BMP180;7672;50.834;6.286;2022-12-20T15:54:28;99190.53;;;15.90
15144;BMP180;7672;50.834;6.286;2022-12-20T15:56:59;99190.66;;;15.85
15144;BMP180;7672;50.834;6.286;2022-12-20T15:59:29;99195.75;;;15.85
15144;BMP180;7672;50.834;6.286;2022-12-20T16:02:27;99192.94;;;16.29
15144;BMP180;7672;50.834;6.286;2022-12-20T16:04:55;99188.91;;;16.19
15144;BMP180;7672;50.834;6.286;2022-12-20T16:07:22;99192.69;;;16.05
15144;BMP180;7672;50.834;6.286;2022-12-20T16:09:49;99189.53;;;15.95
15144;BMP180;7672;50.834;6.286;2022-12-20T16:12:22;99186.19;;;15.93
15144;BMP180;7672;50.834;6.286;2022-12-20T16:14:50;99183.72;;;15.90
15144;BMP180;7672;50.834;6.286;2022-12-20T16:17:17;99181.22;;;15.89
15144;BMP180;7672;50.834;6.286;2022-12-20T16:19:45;99184.72;;;15.85
15144;BMP180;7672;50.834;6.286;2022-12-20T16:22:21;99193.22;;;15.84
15144;BMP180;7672;50.834;6.286;2022-12-20T16:24:49;99184.81;;;15.80
15144;BMP180;7672;50.834;6.286;2022-12-20T16:27:17;99179.78;;;15.79
15144;BMP180;7672;50.834;6.286;2022-12-20T16:29:43;99176.44;;;15.77
15144;BMP180;7672;50.834;6.286;2022-12-20T16:32:17;99171.34;;;15.75
15144;BMP180;7672;50.834;6.286;2022-12-20T16:34:45;99175.72;;;15.70
15144;BMP180;7672;50.834;6.286;2022-12-20T16:37:12;99174.94;;;15.68
15144;BMP180;7672;50.834;6.286;2022-12-20T16:39:40;99167.34;;;15.65
15144;BMP180;7672;50.834;6.286;2022-12-20T16:42:13;99168.31;;;15.63
15144;BMP180;7672;50.834;6.286;2022-12-20T16:44:41;99158.22;;;15.58
15144;BMP180;7672;50.834;6.286;2022-12-20T16:47:10;99165.13;;;15.53